Time;durP1;ratioP1;P1;durP2;ratioP2;P2;SDS_P1;SDS_P2;PMS_P1;PMS_P2;Temp;Humidity;BMP_temperature;BMP_pressure;BME280_temperature;BME280_humidity;BME280_pressure;Samples;Min_cycle;Max_cycle;Signal;HPM_P1;HPM_P2
2023/02/22 08:50:01;;;;;;;;;;;;;;;;;;4974877;27;13499;-74
2023/02/22 08:53:43;;;;;;;;;60.75;51.50;;;;;;;;5100896;27;13485;-85
2023/02/22 08:56:09;;;;;;;;;57.75;47.25;;;;;;;;5080343;28;13602;-86
2023/02/22 08:58:34;;;;;;;;;66.00;53.00;;;;;;;;5081858;28;13583;-79
2023/02/22 09:01:00;;;;;;;;;61.00;49.75;;;;;;;;5081905;28;13581;-82
2023/02/22 09:03:25;;;;;;;;;62.00;50.50;;;;;;;;5081448;28;13608;-80
2023/02/22 09:05:50;;;;;;;;;59.00;49.67;;;;;;;;5081075;28;13569;-80
2023/02/22 09:08:16;;;;;;;;;63.00;49.75;;;;;;;;5081804;28;14318;-79
2023/02/22 09:10:41;;;;;;;;;60.00;49.33;;;;;;;;5083027;28;13588;-75
2023/02/22 09:13:06;;;;;;;;;59.00;49.75;;;;;;;;5081452;28;13690;-77
2023/02/22 09:15:34;;;;;;;;;57.67;49.00;;;;;;;;5081942;28;13596;-74
2023/02/22 09:18:00;;;;;;;;;56.25;47.50;;;;;;;;5083091;28;13454;-77
2023/02/22 09:20:26;;;;;;;;;52.50;42.50;;;;;;;;5083458;28;13655;-75
2023/02/22 09:22:51;;;;;;;;;54.50;46.50;;;;;;;;5091314;28;13586;-76
2023/02/22 09:25:19;;;;;;;;;51.50;41.00;;;;;;;;5086724;28;13534;-75
2023/02/22 09:27:46;;;;;;;;;49.20;43.20;;;;;;;;5083110;28;13546;-82
2023/02/22 09:30:22;;;;;;;;;54.00;44.80;;;;;;;;5083628;28;13564;-77
2023/02/22 09:32:47;;;;;;;;;;;;;;;;;;5088715;28;9572;-83
2023/02/22 09:35:12;;;;;;;;;;;;;;;;;;5088481;28;8069;-77
2023/02/22 09:37:37;;;;;;;;;;;;;;;;;;5088619;28;7979;-78
2023/02/22 09:40:08;;;;;;;;;;;;;;;;;;5088550;28;7538;-78
2023/02/22 09:42:33;;;;;;;;;;;;;;;;;;5088597;28;7520;-78
2023/02/22 09:44:58;;;;;;;;;;;;;;;;;;5088072;28;7586;-79
2023/02/22 09:47:31;;;;;;;;;;;;;;;;;;5088499;28;7524;-80
2023/02/22 09:49:56;;;;;;;;;;;;;;;;;;5088904;28;7528;-81
2023/02/22 09:52:21;;;;;;;;;;;;;;;;;;5022018;28;10052;-80
2023/02/22 09:54:50;;;;;;;;;;;;;;;;;;5067697;28;7548;-77
2023/02/22 09:57:56;;;;;;;;;44.33;38.33;;;;;;;;5101979;27;13429;-77
2023/02/22 10:00:28;;;;;;;;;41.25;32.00;;;;;;;;5106273;28;9695;-75
2023/02/22 10:03:12;;;;;;;;;38.75;36.75;;;;;;;;5105265;28;11535;-76
2023/02/22 10:05:40;;;;;;;;;51.75;44.00;;;;;;;;5102714;28;15037;-77
2023/02/22 10:08:12;;;;;;;;;39.00;35.75;;;;;;;;5102383;28;13519;-80
2023/02/22 10:10:40;;;;;;;;;51.50;39.50;;;;;;;;5102797;28;13540;-81
2023/02/22 10:13:05;;;;;;;;;;;;;;;;;;5110618;28;8920;-81
2023/02/22 10:15:42;;;;;;;;;31.80;29.20;;;;;;;;5107573;28;8826;-82
2023/02/22 10:18:26;;;;;;;;;40.50;38.00;;;;;;;;5103223;28;13543;-79
2023/02/22 10:21:01;;;;;;;;;42.50;39.00;;;;;;;;5104395;28;13549;-79
2023/02/22 10:23:35;;;;;;;;;49.00;43.50;;;;;;;;5066803;27;13599;-78
2023/02/22 10:26:12;;;;;;;;;30.75;29.50;;;;;;;;5067342;28;8821;-79
2023/02/22 10:28:41;;;;;;;;;43.75;36.25;;;;;;;;5045581;28;11541;-75
2023/02/22 10:31:07;;;;;;;;;39.75;34.25;;;;;;;;5046461;28;11646;-75
2023/02/22 10:33:35;;;;;;;;;34.50;33.50;;;;;;;;5046768;28;11561;-74
2023/02/22 10:36:02;;;;;;;;;38.75;34.00;;;;;;;;5046509;28;8851;-81
2023/02/22 10:38:33;;;;;;;;;38.50;30.25;;;;;;;;5045699;28;11547;-84
2023/02/22 10:41:08;;;;;;;;;34.50;31.50;;;;;;;;5045890;28;12238;-82
2023/02/22 10:43:33;;;;;;;;;25.00;21.75;;;;;;;;5020545;28;12309;-80
2023/02/22 10:46:01;;;;;;;;;30.50;24.00;;;;;;;;5047681;28;11570;-79
2023/02/22 10:48:29;;;;;;;;;28.00;24.25;;;;;;;;5044904;28;8820;-82
2023/02/22 10:50:57;;;;;;;;;30.00;22.50;;;;;;;;5046080;28;11633;-77
2023/02/22 10:53:25;;;;;;;;;26.00;23.50;;;;;;;;5046490;28;11522;-77
2023/02/22 10:56:11;;;;;;;;;24.75;23.00;;;;;;;;5046437;28;11644;-76
2023/02/22 10:58:52;;;;;;;;;24.00;23.75;;;;;;;;5045013;28;11695;-76
2023/02/22 11:01:17;;;;;;;;;22.25;21.25;;;;;;;;5046011;28;12275;-76
2023/02/22 11:03:44;;;;;;;;;23.25;20.25;;;;;;;;5047033;28;11611;-78
2023/02/22 11:06:20;;;;;;;;;21.50;19.75;;;;;;;;5046679;28;8807;-76
2023/02/22 11:08:49;;;;;;;;;28.75;22.50;;;;;;;;5055377;28;11495;-76
2023/02/22 11:11:20;;;;;;;;;18.00;18.00;;;;;;;;5047839;28;12300;-76
2023/02/22 11:13:53;;;;;;;;;18.00;14.00;;;;;;;;5023410;28;11491;-76
2023/02/22 11:16:24;;;;;;;;;19.50;16.00;;;;;;;;5012820;28;11584;-74
2023/02/22 11:18:49;;;;;;;;;18.50;14.50;;;;;;;;5032913;28;11597;-77
2023/02/22 11:21:21;;;;;;;;;20.00;17.00;;;;;;;;5032481;28;11601;-77
2023/02/22 11:23:49;;;;;;;;;13.75;13.75;;;;;;;;5033565;28;8890;-77
2023/02/22 11:26:16;;;;;;;;;16.50;15.75;;;;;;;;5032276;28;11480;-76
2023/02/22 11:28:48;;;;;;;;;19.75;16.00;;;;;;;;5051264;28;11529;-76
2023/02/22 11:31:16;;;;;;;;;20.25;17.50;;;;;;;;5049530;28;11448;-76
2023/02/22 11:34:01;;;;;;;;;24.00;17.00;;;;;;;;5032621;28;11491;-76
2023/02/22 11:36:39;;;;;;;;;16.00;14.00;;;;;;;;5031356;28;11531;-76
2023/02/22 11:39:23;;;;;;;;;9.25;9.25;;;;;;;;5052923;28;11547;-76
2023/02/22 11:41:48;;;;;;;;;15.00;13.25;;;;;;;;5045657;28;11501;-77
2023/02/22 11:44:23;;;;;;;;;20.25;16.25;;;;;;;;5032517;28;11466;-75
2023/02/22 11:46:49;;;;;;;;;15.50;15.50;;;;;;;;5031215;28;8870;-77
2023/02/22 11:49:16;;;;;;;;;18.00;15.50;;;;;;;;5032869;28;11458;-78
2023/02/22 11:51:44;;;;;;;;;20.00;18.75;;;;;;;;5032286;28;11453;-76
2023/02/22 11:54:12;;;;;;;;;15.50;15.00;;;;;;;;5032023;28;12211;-78
2023/02/22 11:56:46;;;;;;;;;16.00;14.75;;;;;;;;5032620;28;11612;-72
2023/02/22 11:59:30;;;;;;;;;16.00;12.75;;;;;;;;5035257;28;11497;-76
2023/02/22 12:02:21;;;;;;;;;13.00;12.00;;;;;;;;5024706;28;11515;-79
2023/02/22 12:04:59;;;;;;;;;13.00;13.00;;;;;;;;5032014;28;11455;-79
2023/02/22 12:07:35;;;;;;;;;19.00;16.25;;;;;;;;5038068;28;11613;-74
2023/02/22 12:10:19;;;;;;;;;19.00;13.00;;;;;;;;5051896;28;12176;-74
2023/02/22 12:12:47;;;;;;;;;17.00;17.00;;;;;;;;5037336;28;11477;-76
2023/02/22 12:15:14;;;;;;;;;15.75;15.75;;;;;;;;5031474;28;11608;-74
2023/02/22 12:17:52;;;;;;;;;16.00;13.50;;;;;;;;5029992;28;11495;-75
2023/02/22 12:20:30;;;;;;;;;18.75;16.25;;;;;;;;5030616;28;11491;-77
2023/02/22 12:23:13;;;;;;;;;15.75;15.75;;;;;;;;5031423;28;11588;-85
2023/02/22 12:25:42;;;;;;;;;16.75;16.75;;;;;;;;5031227;28;11697;-77
2023/02/22 12:28:23;;;;;;;;;21.00;17.50;;;;;;;;5042831;28;11521;-76
2023/02/22 12:30:54;;;;;;;;;17.00;16.75;;;;;;;;5049230;28;12304;-78
2023/02/22 12:33:25;;;;;;;;;14.25;12.75;;;;;;;;5033053;28;11511;-77
2023/02/22 12:35:52;;;;;;;;;18.00;16.50;;;;;;;;5031576;28;12250;-80
2023/02/22 12:38:36;;;;;;;;;23.25;22.25;;;;;;;;5029784;28;11670;-77
2023/02/22 12:41:12;;;;;;;;;26.75;22.00;;;;;;;;5031419;28;11534;-76
2023/02/22 12:43:50;;;;;;;;;21.00;18.00;;;;;;;;5031375;28;11535;-77
2023/02/22 12:46:18;;;;;;;;;15.25;14.50;;;;;;;;5030205;28;11526;-74
2023/02/22 12:48:43;;;;;;;;;20.50;14.00;;;;;;;;5027776;28;11602;-74
2023/02/22 12:51:18;;;;;;;;;19.75;15.50;;;;;;;;5020314;28;11493;-75
2023/02/22 12:53:52;;;;;;;;;14.50;13.75;;;;;;;;5043333;28;8810;-72
2023/02/22 12:56:24;;;;;;;;;18.50;17.00;;;;;;;;5010893;28;12268;-73
2023/02/22 12:59:07;;;;;;;;;22.75;19.00;;;;;;;;5031042;28;11459;-72
2023/02/22 13:01:42;;;;;;;;;21.25;20.25;;;;;;;;5030939;28;11563;-76
2023/02/22 13:04:08;;;;;;;;;17.75;15.75;;;;;;;;5030901;28;11528;-74
2023/02/22 13:06:51;;;;;;;;;16.50;16.50;;;;;;;;5026082;28;11495;-76
2023/02/22 13:09:35;;;;;;;;;15.75;15.00;;;;;;;;5029065;28;11589;-76
2023/02/22 13:12:05;;;;;;;;;19.25;16.50;;;;;;;;5027899;28;11491;-76
2023/02/22 13:14:49;;;;;;;;;19.00;19.00;;;;;;;;5029648;28;11528;-74
2023/02/22 13:17:19;;;;;;;;;18.00;16.50;;;;;;;;5027502;28;11613;-76
2023/02/22 13:19:54;;;;;;;;;23.25;19.50;;;;;;;;5030686;28;11550;-76
2023/02/22 13:22:26;;;;;;;;;19.25;18.00;;;;;;;;5030955;28;12370;-74
2023/02/22 13:24:51;;;;;;;;;19.50;17.00;;;;;;;;5030802;28;11628;-74
2023/02/22 13:27:20;;;;;;;;;22.00;19.75;;;;;;;;5037944;28;11489;-74
2023/02/22 13:29:51;;;;;;;;;38.50;30.50;;;;;;;;5050827;28;8890;-75
2023/02/22 13:32:35;;;;;;;;;22.75;19.00;;;;;;;;5050026;28;11580;-72
2023/02/22 13:35:15;;;;;;;;;19.50;16.75;;;;;;;;5050424;28;11527;-74
2023/02/22 13:37:44;;;;;;;;;19.00;17.00;;;;;;;;5048872;28;12345;-73
2023/02/22 13:40:16;;;;;;;;;23.00;19.50;;;;;;;;5049441;28;11458;-75
2023/02/22 13:42:47;;;;;;;;;19.75;19.75;;;;;;;;5050025;28;11640;-75
2023/02/22 13:45:30;;;;;;;;;23.00;19.00;;;;;;;;5050410;28;11557;-75
2023/02/22 13:47:59;;;;;;;;;20.50;19.00;;;;;;;;5034144;28;11487;-74
2023/02/22 13:50:32;;;;;;;;;22.75;20.25;;;;;;;;5030449;28;11529;-73
2023/02/22 13:52:58;;;;;;;;;26.75;19.00;;;;;;;;5030153;28;11611;-72
2023/02/22 13:55:27;;;;;;;;;21.50;18.00;;;;;;;;5030438;28;11477;-80
2023/02/22 13:58:00;;;;;;;;;19.75;16.25;;;;;;;;5029215;28;11694;-86
2023/02/22 14:00:45;;;;;;;;;20.50;18.75;;;;;;;;5030227;28;11513;-82
2023/02/22 14:03:13;;;;;;;;;28.50;22.75;;;;;;;;5029968;28;11544;-75
2023/02/22 14:05:41;;;;;;;;;24.00;22.75;;;;;;;;5028712;28;11570;-75
2023/02/22 14:08:26;;;;;;;;;24.25;18.25;;;;;;;;5029150;28;11550;-82
2023/02/22 14:11:04;;;;;;;;;26.00;22.25;;;;;;;;5031010;28;11595;-79
2023/02/22 14:13:32;;;;;;;;;29.25;19.50;;;;;;;;5030475;28;11557;-77
2023/02/22 14:15:59;;;;;;;;;26.50;21.75;;;;;;;;5030369;28;11667;-83
2023/02/22 14:18:44;;;;;;;;;22.00;19.75;;;;;;;;5029962;28;11540;-84
2023/02/22 14:21:10;;;;;;;;;26.25;24.00;;;;;;;;5041948;28;11531;-77
2023/02/22 14:23:39;;;;;;;;;33.00;25.00;;;;;;;;5049872;28;11535;-75
2023/02/22 14:26:16;;;;;;;;;27.75;23.25;;;;;;;;5040860;28;11480;-83
2023/02/22 14:28:41;;;;;;;;;23.50;21.50;;;;;;;;5049569;28;11514;-81
2023/02/22 14:31:11;;;;;;;;;24.50;22.50;;;;;;;;5035500;28;11566;-82
2023/02/22 14:33:51;;;;;;;;;27.25;23.50;;;;;;;;5030150;28;8835;-80
2023/02/22 14:36:19;;;;;;;;;20.50;17.00;;;;;;;;5029928;28;11710;-75
2023/02/22 14:38:45;;;;;;;;;11.00;11.00;;;;;;;;5030025;28;12354;-74
2023/02/22 14:41:13;;;;;;;;;12.75;12.75;;;;;;;;5015771;28;11601;-75
2023/02/22 14:43:39;;;;;;;;;12.00;12.00;;;;;;;;5028282;28;11641;-75
2023/02/22 14:46:06;;;;;;;;;13.00;12.75;;;;;;;;5033381;28;11536;-75
2023/02/22 14:48:38;;;;;;;;;14.50;14.50;;;;;;;;5048985;28;8787;-75
2023/02/22 14:51:15;;;;;;;;;11.25;11.25;;;;;;;;5033385;28;11663;-74
2023/02/22 14:53:48;;;;;;;;;12.50;11.50;;;;;;;;5033302;28;11464;-75
2023/02/22 14:56:21;;;;;;;;;12.00;12.00;;;;;;;;5032742;28;11528;-75
2023/02/22 14:58:54;;;;;;;;;13.75;13.75;;;;;;;;5033200;28;11483;-75
2023/02/22 15:01:25;;;;;;;;;20.50;18.50;;;;;;;;5032745;28;11537;-75
2023/02/22 15:03:50;;;;;;;;;16.25;12.75;;;;;;;;5033003;28;12508;-78
2023/02/22 15:06:20;;;;;;;;;6.50;5.50;;;;;;;;5033246;28;11508;-78
2023/02/22 15:08:47;;;;;;;;;15.25;12.00;;;;;;;;5033442;28;8792;-78
2023/02/22 15:11:22;;;;;;;;;14.75;12.50;;;;;;;;5032764;28;11495;-73
2023/02/22 15:13:52;;;;;;;;;12.75;12.75;;;;;;;;5033159;28;11481;-73
2023/02/22 15:16:18;;;;;;;;;12.50;11.00;;;;;;;;5026491;28;11704;-73
2023/02/22 15:18:46;;;;;;;;;15.75;12.25;;;;;;;;5014676;28;11566;-80
2023/02/22 15:21:11;;;;;;;;;11.25;11.00;;;;;;;;5013534;28;11482;-77
2023/02/22 15:23:42;;;;;;;;;31.75;29.75;;;;;;;;5012796;28;12178;-74
2023/02/22 15:26:14;;;;;;;;;29.00;25.25;;;;;;;;5012780;28;8787;-74
2023/02/22 15:28:41;;;;;;;;;15.25;15.25;;;;;;;;5012840;28;11693;-74
2023/02/22 15:31:17;;;;;;;;;8.00;8.00;;;;;;;;5044445;28;11558;-74
2023/02/22 15:33:42;;;;;;;;;14.25;12.50;;;;;;;;5027816;28;11553;-74
2023/02/22 15:36:11;;;;;;;;;2.00;2.00;;;;;;;;5013066;28;12379;-82
2023/02/22 15:38:37;;;;;;;;;14.00;13.00;;;;;;;;5027787;28;8912;-83
2023/02/22 15:41:07;;;;;;;;;15.00;13.50;;;;;;;;5025405;28;11552;-74
2023/02/22 15:43:32;;;;;;;;;20.50;16.00;;;;;;;;5032448;28;8973;-76
2023/02/22 15:45:58;;;;;;;;;12.75;11.00;;;;;;;;5025939;28;11525;-74
2023/02/22 15:48:25;;;;;;;;;23.25;15.75;;;;;;;;5013558;28;8778;-72
2023/02/22 15:51:13;;;;;;;;;20.75;17.50;;;;;;;;5012438;28;11523;-73
2023/02/22 15:53:43;;;;;;;;;20.00;18.00;;;;;;;;5013645;28;11624;-75
2023/02/22 15:56:14;;;;;;;;;19.50;18.25;;;;;;;;5059152;28;11605;-76
2023/02/22 15:58:40;;;;;;;;;17.75;17.75;;;;;;;;5031842;28;11542;-74
2023/02/22 16:01:07;;;;;;;;;18.25;16.00;;;;;;;;5045510;28;12288;-74
2023/02/22 16:03:44;;;;;;;;;16.25;16.25;;;;;;;;5029823;28;11676;-76
2023/02/22 16:06:12;;;;;;;;;20.25;16.00;;;;;;;;5029967;28;11542;-73
2023/02/22 16:08:43;;;;;;;;;20.00;20.00;;;;;;;;5029712;28;11680;-75
2023/02/22 16:11:28;;;;;;;;;22.25;19.75;;;;;;;;4983534;28;11475;-71
2023/02/22 16:13:56;;;;;;;;;21.00;20.75;;;;;;;;5039778;28;11681;-72
2023/02/22 16:16:24;;;;;;;;;25.50;22.25;;;;;;;;5029740;28;11679;-71
2023/02/22 16:18:50;;;;;;;;;23.00;22.75;;;;;;;;5029634;28;11531;-71
2023/02/22 16:21:16;;;;;;;;;20.50;20.50;;;;;;;;5029539;28;11700;-71
2023/02/22 16:23:49;;;;;;;;;26.00;21.50;;;;;;;;5029698;28;11562;-73
2023/02/22 16:26:14;;;;;;;;;27.25;21.75;;;;;;;;5028322;28;11588;-70
2023/02/22 16:28:45;;;;;;;;;25.75;19.75;;;;;;;;5030232;28;11561;-70
2023/02/22 16:31:11;;;;;;;;;24.00;22.25;;;;;;;;5031335;28;8795;-69
2023/02/22 16:33:37;;;;;;;;;31.00;25.75;;;;;;;;5031284;28;11525;-70
2023/02/22 16:36:03;;;;;;;;;26.25;24.25;;;;;;;;5031504;28;8843;-70
2023/02/22 16:38:30;;;;;;;;;23.50;21.50;;;;;;;;5031886;28;9534;-70
2023/02/22 16:40:57;;;;;;;;;25.00;22.75;;;;;;;;5019297;28;11674;-70
2023/02/22 16:43:24;;;;;;;;;26.50;23.00;;;;;;;;5011717;28;11672;-70
2023/02/22 16:45:51;;;;;;;;;26.50;24.50;;;;;;;;5011556;28;11536;-70
2023/02/22 16:48:28;;;;;;;;;25.50;23.00;;;;;;;;5011403;28;11556;-71
2023/02/22 16:50:55;;;;;;;;;22.50;19.75;;;;;;;;5011089;28;11663;-71
2023/02/22 16:53:22;;;;;;;;;22.00;18.00;;;;;;;;5020229;28;12275;-72
2023/02/22 16:55:48;;;;;;;;;25.75;19.50;;;;;;;;5027815;28;12289;-72
2023/02/22 16:58:14;;;;;;;;;17.75;17.75;;;;;;;;5030334;28;11592;-71
2023/02/22 17:00:41;;;;;;;;;14.50;13.75;;;;;;;;5030730;28;8898;-72
2023/02/22 17:03:09;;;;;;;;;23.00;20.00;;;;;;;;5030492;28;11527;-72
2023/02/22 17:05:34;;;;;;;;;22.00;17.50;;;;;;;;5029674;28;11530;-72
2023/02/22 17:08:00;;;;;;;;;18.25;18.25;;;;;;;;5030048;28;11588;-72
2023/02/22 17:10:25;;;;;;;;;16.50;16.00;;;;;;;;5030261;28;8815;-72
2023/02/22 17:12:52;;;;;;;;;18.75;17.50;;;;;;;;5030467;28;9518;-72
2023/02/22 17:15:27;;;;;;;;;25.00;19.50;;;;;;;;5030184;28;8796;-72
2023/02/22 17:17:53;;;;;;;;;22.75;21.50;;;;;;;;5028622;28;11634;-72
2023/02/22 17:20:28;;;;;;;;;23.25;21.75;;;;;;;;5030220;28;12244;-72
2023/02/22 17:22:54;;;;;;;;;34.25;29.50;;;;;;;;5028645;28;11607;-72
2023/02/22 17:25:24;;;;;;;;;35.00;29.75;;;;;;;;5029289;28;11534;-72
2023/02/22 17:27:50;;;;;;;;;35.00;32.25;;;;;;;;5030044;28;8820;-72
2023/02/22 17:30:16;;;;;;;;;30.50;26.75;;;;;;;;5030324;28;11550;-72
2023/02/22 17:32:41;;;;;;;;;37.25;33.75;;;;;;;;5030422;28;8952;-73
2023/02/22 17:35:06;;;;;;;;;40.00;38.00;;;;;;;;5030587;28;8800;-71
2023/02/22 17:37:32;;;;;;;;;39.25;34.00;;;;;;;;5029109;28;8878;-71
2023/02/22 17:39:57;;;;;;;;;34.00;33.00;;;;;;;;5026526;28;8811;-70
2023/02/22 17:42:22;;;;;;;;;41.00;36.50;;;;;;;;5010432;28;8826;-70
2023/02/22 17:44:47;;;;;;;;;38.25;36.00;;;;;;;;5010570;28;8801;-71
2023/02/22 17:47:13;;;;;;;;;34.75;33.75;;;;;;;;5012916;28;9687;-72
2023/02/22 17:49:38;;;;;;;;;42.25;38.75;;;;;;;;5029705;28;8900;-71
2023/02/22 17:52:05;;;;;;;;;46.25;39.75;;;;;;;;5029836;28;8820;-71
2023/02/22 17:54:31;;;;;;;;;38.00;35.00;;;;;;;;5029840;28;8826;-71
2023/02/22 17:56:56;;;;;;;;;44.00;38.00;;;;;;;;5028822;28;11651;-70
2023/02/22 17:59:22;;;;;;;;;41.75;35.25;;;;;;;;5028452;28;11560;-73
2023/02/22 18:01:47;;;;;;;;;35.50;34.25;;;;;;;;5029743;28;8808;-73
2023/02/22 18:04:13;;;;;;;;;23.25;22.25;;;;;;;;5030269;28;8918;-73
2023/02/22 18:06:38;;;;;;;;;41.25;38.75;;;;;;;;5045899;28;8823;-73
2023/02/22 18:09:08;;;;;;;;;43.50;37.25;;;;;;;;5030559;28;8804;-73
2023/02/22 18:11:34;;;;;;;;;37.75;35.00;;;;;;;;5030509;28;8816;-73
2023/02/22 18:14:00;;;;;;;;;46.50;39.00;;;;;;;;5029030;28;11566;-75
2023/02/22 18:16:25;;;;;;;;;39.25;35.25;;;;;;;;5028175;28;8901;-74
2023/02/22 18:18:51;;;;;;;;;42.25;38.50;;;;;;;;5031264;28;8800;-72
2023/02/22 18:21:16;;;;;;;;;47.50;41.00;;;;;;;;5029813;28;10306;-73
2023/02/22 18:23:43;;;;;;;;;39.75;38.50;;;;;;;;5032092;28;8815;-73
2023/02/22 18:26:12;;;;;;;;;35.75;34.25;;;;;;;;5030509;28;8935;-73
2023/02/22 18:28:41;;;;;;;;;38.25;33.00;;;;;;;;5032387;28;11519;-74
2023/02/22 18:31:13;;;;;;;;;37.00;36.00;;;;;;;;5032324;28;11535;-73
2023/02/22 18:33:38;;;;;;;;;43.00;35.75;;;;;;;;5032169;28;11560;-73
2023/02/22 18:36:03;;;;;;;;;45.75;40.25;;;;;;;;5027977;28;11576;-77
2023/02/22 18:38:41;;;;;;;;;39.75;35.50;;;;;;;;5031057;28;10731;-81
2023/02/22 18:41:08;;;;;;;;;45.75;40.75;;;;;;;;5030260;28;8873;-76
2023/02/22 18:43:34;;;;;;;;;43.00;38.00;;;;;;;;5032155;28;11576;-77
2023/02/22 18:46:06;;;;;;;;;48.50;41.25;;;;;;;;5028040;28;12447;-79
2023/02/22 18:48:31;;;;;;;;;40.25;35.50;;;;;;;;5044658;28;8938;-73
2023/02/22 18:51:06;;;;;;;;;47.25;41.00;;;;;;;;5029014;28;11644;-72
2023/02/22 18:53:32;;;;;;;;;48.75;41.00;;;;;;;;5032094;28;8795;-71
2023/02/22 18:56:02;;;;;;;;;37.50;36.50;;;;;;;;5031816;28;11572;-72
2023/02/22 18:58:31;;;;;;;;;45.50;40.75;;;;;;;;5053264;28;11557;-75
2023/02/22 19:00:56;;;;;;;;;34.25;29.75;;;;;;;;5053120;28;11564;-73
2023/02/22 19:03:21;;;;;;;;;42.25;39.25;;;;;;;;5051499;28;11547;-72
2023/02/22 19:05:48;;;;;;;;;53.50;44.00;;;;;;;;5033731;28;8811;-72
2023/02/22 19:08:14;;;;;;;;;53.25;45.75;;;;;;;;5033070;28;8800;-78
2023/02/22 19:10:39;;;;;;;;;53.75;44.75;;;;;;;;5023130;28;11645;-73
2023/02/22 19:13:09;;;;;;;;;49.75;42.25;;;;;;;;5029992;28;8846;-74
2023/02/22 19:15:35;;;;;;;;;47.50;43.25;;;;;;;;5048461;28;8809;-74
2023/02/22 19:18:00;;;;;;;;;49.50;43.00;;;;;;;;5051235;28;11589;-74
2023/02/22 19:20:31;;;;;;;;;52.00;42.75;;;;;;;;5052927;28;9491;-76
2023/02/22 19:22:56;;;;;;;;;49.00;43.00;;;;;;;;5053203;28;8801;-72
2023/02/22 19:25:22;;;;;;;;;43.50;40.75;;;;;;;;5033354;28;11594;-71
2023/02/22 19:27:47;;;;;;;;;48.00;43.50;;;;;;;;5032638;28;8800;-72
2023/02/22 19:30:12;;;;;;;;;49.50;44.00;;;;;;;;5030100;28;8824;-73
2023/02/22 19:32:43;;;;;;;;;54.00;43.50;;;;;;;;5031658;28;8811;-73
2023/02/22 19:35:08;;;;;;;;;56.75;45.75;;;;;;;;5031058;28;8788;-71
2023/02/22 19:37:34;;;;;;;;;46.75;41.25;;;;;;;;5029878;28;11614;-72
2023/02/22 19:40:00;;;;;;;;;51.50;45.00;;;;;;;;5030427;28;8939;-72
2023/02/22 19:42:25;;;;;;;;;54.25;45.25;;;;;;;;5030548;28;9530;-71
2023/02/22 19:44:52;;;;;;;;;57.75;48.50;;;;;;;;5028806;28;11565;-72
2023/02/22 19:47:17;;;;;;;;;61.67;50.00;;;;;;;;5030518;28;8803;-71
2023/02/22 19:49:43;;;;;;;;;62.25;50.00;;;;;;;;5030554;28;11550;-76
2023/02/22 19:52:08;;;;;;;;;56.75;47.25;;;;;;;;5028669;28;8824;-72
2023/02/22 19:54:33;;;;;;;;;57.75;46.75;;;;;;;;5045647;28;8828;-72
2023/02/22 19:56:59;;;;;;;;;50.00;45.00;;;;;;;;5029666;28;8855;-73
2023/02/22 19:59:24;;;;;;;;;62.33;50.00;;;;;;;;5012619;28;8830;-70
2023/02/22 20:01:54;;;;;;;;;58.25;46.25;;;;;;;;5041797;28;8849;-77
2023/02/22 20:04:23;;;;;;;;;55.67;45.33;;;;;;;;5016551;28;8963;-74
2023/02/22 20:06:56;;;;;;;;;46.00;41.50;;;;;;;;5028630;28;11620;-75
2023/02/22 20:09:23;;;;;;;;;49.75;42.75;;;;;;;;5029097;28;11688;-73
2023/02/22 20:11:50;;;;;;;;;51.50;41.75;;;;;;;;5026586;28;11593;-74
2023/02/22 20:14:19;;;;;;;;;47.25;42.00;;;;;;;;5028320;28;11581;-74
2023/02/22 20:16:45;;;;;;;;;55.50;44.00;;;;;;;;5030907;28;11607;-73
2023/02/22 20:19:12;;;;;;;;;55.75;48.25;;;;;;;;5030990;28;12311;-73
2023/02/22 20:21:37;;;;;;;;;47.00;43.00;;;;;;;;5028036;28;8811;-74
2023/02/22 20:24:05;;;;;;;;;49.50;43.00;;;;;;;;5029087;28;11551;-74
2023/02/22 20:26:31;;;;;;;;;46.33;42.33;;;;;;;;5028391;28;8803;-74
2023/02/22 20:28:57;;;;;;;;;54.33;45.33;;;;;;;;5030867;28;11549;-74
2023/02/22 20:31:22;;;;;;;;;45.50;43.25;;;;;;;;5031265;28;8804;-70
2023/02/22 20:33:50;;;;;;;;;64.00;48.67;;;;;;;;5032716;28;8817;-73
2023/02/22 20:36:17;;;;;;;;;52.00;45.50;;;;;;;;5041010;28;8846;-74
2023/02/22 20:38:48;;;;;;;;;47.75;45.00;;;;;;;;5030849;28;11553;-73
2023/02/22 20:41:18;;;;;;;;;41.25;36.75;;;;;;;;5029740;28;11585;-73
2023/02/22 20:43:47;;;;;;;;;46.25;41.25;;;;;;;;5029481;28;11592;-72
2023/02/22 20:46:13;;;;;;;;;48.50;43.75;;;;;;;;5030658;28;11579;-74
2023/02/22 20:48:41;;;;;;;;;61.50;46.00;;;;;;;;5030673;28;11554;-73
2023/02/22 20:51:06;;;;;;;;;48.25;43.25;;;;;;;;5030740;28;8922;-73
2023/02/22 20:53:35;;;;;;;;;60.00;46.00;;;;;;;;5028602;28;11682;-74
2023/02/22 20:56:00;;;;;;;;;0.00;0.00;;;;;;;;5027920;28;9530;-74
2023/02/22 20:58:25;;;;;;;;;60.00;48.00;;;;;;;;5027810;28;11457;-74
2023/02/22 21:00:50;;;;;;;;;54.67;47.67;;;;;;;;5030593;28;8842;-75
2023/02/22 21:03:16;;;;;;;;;54.33;46.00;;;;;;;;5030348;28;8852;-74
2023/02/22 21:05:42;;;;;;;;;56.00;47.50;;;;;;;;5030046;28;8916;-72
2023/02/22 21:08:07;;;;;;;;;58.75;47.00;;;;;;;;5030547;28;8820;-72
2023/02/22 21:10:40;;;;;;;;;52.75;45.50;;;;;;;;5030131;28;11601;-72
2023/02/22 21:13:05;;;;;;;;;47.50;42.50;;;;;;;;5031020;28;8788;-72
2023/02/22 21:15:35;;;;;;;;;49.25;44.25;;;;;;;;5029490;28;11582;-73
2023/02/22 21:18:01;;;;;;;;;63.00;49.33;;;;;;;;5030909;28;9507;-72
2023/02/22 21:20:29;;;;;;;;;56.33;46.33;;;;;;;;5023106;28;11575;-72
2023/02/22 21:22:55;;;;;;;;;51.50;45.00;;;;;;;;5042500;28;12354;-72
2023/02/22 21:25:28;;;;;;;;;54.00;44.25;;;;;;;;5010240;28;11556;-72
2023/02/22 21:27:53;;;;;;;;;45.50;43.75;;;;;;;;5028754;28;8851;-72
2023/02/22 21:30:27;;;;;;;;;64.00;49.00;;;;;;;;5029604;28;11563;-72
2023/02/22 21:32:55;;;;;;;;;56.33;49.00;;;;;;;;5030850;28;8828;-72
2023/02/22 21:35:23;;;;;;;;;56.00;50.33;;;;;;;;5030510;28;11541;-71
2023/02/22 21:37:51;;;;;;;;;54.00;45.33;;;;;;;;5030375;28;9546;-72
2023/02/22 21:40:26;;;;;;;;;56.33;48.67;;;;;;;;5029991;28;11561;-72
2023/02/22 21:43:00;;;;;;;;;58.33;47.67;;;;;;;;5029149;28;8835;-73
2023/02/22 21:45:29;;;;;;;;;53.67;46.67;;;;;;;;5045934;28;8834;-71
2023/02/22 21:47:54;;;;;;;;;56.00;46.00;;;;;;;;5030440;28;8827;-71
2023/02/22 21:50:20;;;;;;;;;51.33;46.33;;;;;;;;5030490;28;8830;-72
2023/02/22 21:52:55;;;;;;;;;51.67;46.33;;;;;;;;5030096;28;8804;-71
2023/02/22 21:55:28;;;;;;;;;54.00;47.00;;;;;;;;5030360;28;9676;-71
2023/02/22 21:57:56;;;;;;;;;60.00;47.00;;;;;;;;5022984;28;12377;-73
2023/02/22 22:00:36;;;;;;;;;49.00;45.00;;;;;;;;5016955;28;11581;-73
2023/02/22 22:03:08;;;;;;;;;54.33;46.33;;;;;;;;5010462;28;11554;-72
2023/02/22 22:05:39;;;;;;;;;64.67;47.67;;;;;;;;5010420;28;11586;-73
2023/02/22 22:08:10;;;;;;;;;64.67;49.00;;;;;;;;5010581;28;8794;-72
2023/02/22 22:10:35;;;;;;;;;60.33;47.67;;;;;;;;5019424;28;11577;-72
2023/02/22 22:13:01;;;;;;;;;64.00;48.33;;;;;;;;5030034;28;8804;-73
2023/02/22 22:15:28;;;;;;;;;55.67;45.67;;;;;;;;5044553;28;8828;-71
2023/02/22 22:18:04;;;;;;;;;57.00;42.33;;;;;;;;5030412;28;8843;-72
2023/02/22 22:20:38;;;;;;;;;56.67;48.67;;;;;;;;5029762;28;11650;-72
2023/02/22 22:23:07;;;;;;;;;51.33;45.00;;;;;;;;5030069;28;11775;-76
2023/02/22 22:25:36;;;;;;;;;47.67;44.67;;;;;;;;5029830;28;8819;-77
2023/02/22 22:28:10;;;;;;;;;45.25;40.75;;;;;;;;5030235;28;11638;-77
2023/02/22 22:30:38;;;;;;;;;52.67;44.00;;;;;;;;5045021;28;11679;-76
2023/02/22 22:33:22;;;;;;;;;51.33;43.33;;;;;;;;5029774;28;11536;-76
2023/02/22 22:35:47;;;;;;;;;50.67;43.33;;;;;;;;5030019;28;11577;-76
2023/02/22 22:38:13;;;;;;;;;53.67;45.00;;;;;;;;5029703;28;11601;-76
2023/02/22 22:40:38;;;;;;;;;58.00;44.00;;;;;;;;5045330;28;8847;-75
2023/02/22 22:43:04;;;;;;;;;56.33;45.00;;;;;;;;5029647;28;11561;-76
2023/02/22 22:45:31;;;;;;;;;59.33;47.33;;;;;;;;5028804;28;8831;-76
2023/02/22 22:47:59;;;;;;;;;57.67;47.67;;;;;;;;5028230;28;8831;-76
2023/02/22 22:50:25;;;;;;;;;62.33;50.00;;;;;;;;5029015;28;9794;-76
2023/02/22 22:52:51;;;;;;;;;55.33;45.67;;;;;;;;5044016;28;11579;-74
2023/02/22 22:55:17;;;;;;;;;54.00;44.00;;;;;;;;5044636;28;8824;-75
2023/02/22 22:57:43;;;;;;;;;57.00;47.33;;;;;;;;5029039;28;11727;-75
2023/02/22 23:00:25;;;;;;;;;58.67;45.00;;;;;;;;5029406;28;11652;-76
2023/02/22 23:02:54;;;;;;;;;52.67;46.00;;;;;;;;5045084;28;8803;-76
2023/02/22 23:05:20;;;;;;;;;55.00;45.00;;;;;;;;5047877;28;8835;-75
2023/02/22 23:07:45;;;;;;;;;57.67;45.67;;;;;;;;5033276;28;11560;-75
2023/02/22 23:10:11;;;;;;;;;57.33;46.00;;;;;;;;5033330;28;9530;-75
2023/02/22 23:12:38;;;;;;;;;55.67;44.33;;;;;;;;5033323;28;8938;-75
2023/02/22 23:15:03;;;;;;;;;50.67;41.67;;;;;;;;5033199;28;12396;-76
2023/02/22 23:17:39;;;;;;;;;51.00;42.33;;;;;;;;5033044;28;11644;-75
2023/02/22 23:20:10;;;;;;;;;53.00;45.00;;;;;;;;5048418;28;8915;-75
2023/02/22 23:22:37;;;;;;;;;56.00;42.00;;;;;;;;5033271;28;11586;-75
2023/02/22 23:25:02;;;;;;;;;56.67;43.00;;;;;;;;5032951;28;11649;-75
2023/02/22 23:27:28;;;;;;;;;57.33;45.67;;;;;;;;5032813;28;11751;-75
2023/02/22 23:29:53;;;;;;;;;52.33;43.00;;;;;;;;5032905;28;9534;-75